sensor_id;sensor_type;location;lat;lon;timestamp;pressure;altitude;pressure_sealevel;temperature;humidity
71559;BME280;59382;43.852;25.952;2023-09-08T00:01:49;101727.22;;;25.31;37.46
71559;BME280;59382;43.852;25.952;2023-09-08T00:04:15;101710.16;;;25.24;37.76
71559;BME280;59382;43.852;25.952;2023-09-08T00:06:41;101725.59;;;25.30;37.63
71559;BME280;59382;43.852;25.952;2023-09-08T00:09:07;101733.06;;;25.35;37.75
71559;BME280;59382;43.852;25.952;2023-09-08T00:11:33;101727.53;;;25.35;37.45
71559;BME280;59382;43.852;25.952;2023-09-08T00:13:59;101735.81;;;25.40;37.78
71559;BME280;59382;43.852;25.952;2023-09-08T00:16:24;101720.38;;;25.34;37.83
71559;BME280;59382;43.852;25.952;2023-09-08T00:18:50;101730.00;;;25.36;37.74
71559;BME280;59382;43.852;25.952;2023-09-08T00:21:16;101724.47;;;25.36;37.43
71559;BME280;59382;43.852;25.952;2023-09-08T00:23:41;101728.59;;;25.39;37.72
71559;BME280;59382;43.852;25.952;2023-09-08T00:26:07;101718.97;;;25.36;37.65
71559;BME280;59382;43.852;25.952;2023-09-08T00:28:33;101720.06;;;25.35;37.78
71559;BME280;59382;43.852;25.952;2023-09-08T00:30:58;101722.50;;;25.42;37.98
71559;BME280;59382;43.852;25.952;2023-09-08T00:33:25;101710.66;;;25.36;37.45
71559;BME280;59382;43.852;25.952;2023-09-08T00:35:51;101717.56;;;25.39;37.58
71559;BME280;59382;43.852;25.952;2023-09-08T00:38:18;101718.66;;;25.38;37.59
71559;BME280;59382;43.852;25.952;2023-09-08T00:40:44;101717.59;;;25.29;38.11
71559;BME280;59382;43.852;25.952;2023-09-08T00:43:10;101717.31;;;25.25;37.94
71559;BME280;59382;43.852;25.952;2023-09-08T00:45:40;101719.28;;;25.20;38.27
71559;BME280;59382;43.852;25.952;2023-09-08T00:48:07;101723.69;;;25.26;38.27
71559;BME280;59382;43.852;25.952;2023-09-08T00:50:33;101714.91;;;25.14;38.19
71559;BME280;59382;43.852;25.952;2023-09-08T00:52:59;101711.03;;;25.15;38.23
71559;BME280;59382;43.852;25.952;2023-09-08T00:55:25;101712.13;;;25.19;38.65
71559;BME280;59382;43.852;25.952;2023-09-08T00:57:50;101713.75;;;25.20;38.79
71559;BME280;59382;43.852;25.952;2023-09-08T01:00:16;101711.03;;;25.15;39.21
71559;BME280;59382;43.852;25.952;2023-09-08T01:02:42;101723.13;;;25.24;39.29
71559;BME280;59382;43.852;25.952;2023-09-08T01:05:08;101719.84;;;25.22;39.25
71559;BME280;59382;43.852;25.952;2023-09-08T01:07:34;101713.25;;;25.18;39.21
71559;BME280;59382;43.852;25.952;2023-09-08T01:10:01;101730.31;;;25.25;39.66
71559;BME280;59382;43.852;25.952;2023-09-08T01:12:29;101731.41;;;25.24;39.50
71559;BME280;59382;43.852;25.952;2023-09-08T01:14:55;101724.25;;;25.23;39.86
71559;BME280;59382;43.852;25.952;2023-09-08T01:17:20;101723.41;;;25.22;40.04
71559;BME280;59382;43.852;25.952;2023-09-08T01:19:47;101720.13;;;25.20;40.27
71559;BME280;59382;43.852;25.952;2023-09-08T01:22:45;101719.84;;;25.22;40.45
71559;BME280;59382;43.852;25.952;2023-09-08T01:25:21;101710.44;;;25.23;40.33
71559;BME280;59382;43.852;25.952;2023-09-08T01:27:52;101710.72;;;25.21;40.00
71559;BME280;59382;43.852;25.952;2023-09-08T01:30:19;101705.53;;;25.15;40.26
71559;BME280;59382;43.852;25.952;2023-09-08T01:32:46;101723.69;;;25.21;40.26
71559;BME280;59382;43.852;25.952;2023-09-08T01:35:12;101719.28;;;25.20;40.07
71559;BME280;59382;43.852;25.952;2023-09-08T01:37:45;101701.38;;;25.12;40.19
71559;BME280;59382;43.852;25.952;2023-09-08T01:40:12;101712.69;;;25.16;40.46
71559;BME280;59382;43.852;25.952;2023-09-08T01:42:39;101720.41;;;25.19;40.61
71559;BME280;59382;43.852;25.952;2023-09-08T01:45:05;101698.91;;;25.11;40.55
71559;BME280;59382;43.852;25.952;2023-09-08T01:47:30;101717.94;;;25.17;40.79
71559;BME280;59382;43.852;25.952;2023-09-08T01:49:56;101707.72;;;25.13;40.53
71559;BME280;59382;43.852;25.952;2023-09-08T01:52:22;101714.34;;;25.17;40.99
71559;BME280;59382;43.852;25.952;2023-09-08T01:54:47;101719.84;;;25.17;40.72
71559;BME280;59382;43.852;25.952;2023-09-08T01:57:13;101715.44;;;25.16;41.08
71559;BME280;59382;43.852;25.952;2023-09-08T01:59:38;101722.91;;;25.15;41.16
71559;BME280;59382;43.852;25.952;2023-09-08T02:02:04;101716.56;;;25.15;40.87
71559;BME280;59382;43.852;25.952;2023-09-08T02:04:29;101722.09;;;25.15;41.27
71559;BME280;59382;43.852;25.952;2023-09-08T02:06:55;101716.31;;;25.11;41.39
71559;BME280;59382;43.852;25.952;2023-09-08T02:09:20;101710.28;;;25.04;41.26
71559;BME280;59382;43.852;25.952;2023-09-08T02:11:46;101726.50;;;25.11;41.54
71559;BME280;59382;43.852;25.952;2023-09-08T02:14:12;101711.63;;;25.01;41.81
71559;BME280;59382;43.852;25.952;2023-09-08T02:16:37;101716.34;;;25.01;41.88
71559;BME280;59382;43.852;25.952;2023-09-08T02:19:03;101714.41;;;25.01;41.85
71559;BME280;59382;43.852;25.952;2023-09-08T02:21:28;101727.94;;;25.03;41.74
71559;BME280;59382;43.852;25.952;2023-09-08T02:23:54;101695.41;;;24.85;41.79
71559;BME280;59382;43.852;25.952;2023-09-08T02:26:19;101727.63;;;25.04;42.11
71559;BME280;59382;43.852;25.952;2023-09-08T02:28:45;101726.00;;;25.03;41.95
71559;BME280;59382;43.852;25.952;2023-09-08T02:31:10;101720.78;;;24.97;42.25
71559;BME280;59382;43.852;25.952;2023-09-08T02:33:36;101727.94;;;25.03;42.01
71559;BME280;59382;43.852;25.952;2023-09-08T02:36:05;101727.63;;;25.04;41.96
71559;BME280;59382;43.852;25.952;2023-09-08T02:38:32;101727.63;;;25.04;42.26
71559;BME280;59382;43.852;25.952;2023-09-08T02:40:57;101723.78;;;25.06;42.13
71559;BME280;59382;43.852;25.952;2023-09-08T02:43:23;101724.34;;;25.02;42.04
71559;BME280;59382;43.852;25.952;2023-09-08T02:45:49;101713.88;;;24.99;42.28
71559;BME280;59382;43.852;25.952;2023-09-08T02:48:15;101731.53;;;25.03;42.05
71559;BME280;59382;43.852;25.952;2023-09-08T02:50:41;101722.41;;;25.03;42.43
71559;BME280;59382;43.852;25.952;2023-09-08T02:53:07;101716.63;;;24.99;42.12
71559;BME280;59382;43.852;25.952;2023-09-08T02:55:32;101708.38;;;24.94;42.34
71559;BME280;59382;43.852;25.952;2023-09-08T02:57:58;101704.47;;;24.95;42.17
71559;BME280;59382;43.852;25.952;2023-09-08T03:00:24;101712.78;;;24.95;42.44
71559;BME280;59382;43.852;25.952;2023-09-08T03:02:50;101709.44;;;24.98;42.35
71559;BME280;59382;43.852;25.952;2023-09-08T03:05:15;101711.41;;;24.98;42.54
71559;BME280;59382;43.852;25.952;2023-09-08T03:07:41;101707.81;;;24.92;42.37
71559;BME280;59382;43.852;25.952;2023-09-08T03:10:07;101715.00;;;24.93;42.49
71559;BME280;59382;43.852;25.952;2023-09-08T03:12:32;101717.78;;;24.93;42.42
71559;BME280;59382;43.852;25.952;2023-09-08T03:14:58;101716.38;;;24.91;42.39
71559;BME280;59382;43.852;25.952;2023-09-08T03:17:23;101710.03;;;24.90;42.49
71559;BME280;59382;43.852;25.952;2023-09-08T03:19:49;101700.69;;;24.81;42.80
71559;BME280;59382;43.852;25.952;2023-09-08T03:22:14;101709.50;;;24.83;42.40
71559;BME280;59382;43.852;25.952;2023-09-08T03:24:40;101701.81;;;24.75;42.69
71559;BME280;59382;43.852;25.952;2023-09-08T03:27:05;101713.38;;;24.87;42.66
71559;BME280;59382;43.852;25.952;2023-09-08T03:29:31;101711.69;;;24.86;42.86
71559;BME280;59382;43.852;25.952;2023-09-08T03:31:56;101702.91;;;24.79;42.66
71559;BME280;59382;43.852;25.952;2023-09-08T03:34:22;101715.03;;;24.83;42.71
71559;BME280;59382;43.852;25.952;2023-09-08T03:36:48;101708.97;;;24.81;42.92
71559;BME280;59382;43.852;25.952;2023-09-08T03:39:14;101708.97;;;24.81;42.65
71559;BME280;59382;43.852;25.952;2023-09-08T03:41:40;101712.81;;;24.80;43.00
71559;BME280;59382;43.852;25.952;2023-09-08T03:44:06;101718.91;;;24.82;42.55
71559;BME280;59382;43.852;25.952;2023-09-08T03:46:31;101720.03;;;24.81;42.94
71559;BME280;59382;43.852;25.952;2023-09-08T03:48:57;101723.34;;;24.78;42.81
71559;BME280;59382;43.852;25.952;2023-09-08T03:51:29;101717.59;;;24.70;42.92
71559;BME280;59382;43.852;25.952;2023-09-08T03:53:54;101728.59;;;24.75;43.08
71559;BME280;59382;43.852;25.952;2023-09-08T03:56:20;101729.41;;;24.75;42.95
71559;BME280;59382;43.852;25.952;2023-09-08T03:58:46;101715.63;;;24.70;42.79
71559;BME280;59382;43.852;25.952;2023-09-08T04:01:12;101707.91;;;24.62;42.84
71559;BME280;59382;43.852;25.952;2023-09-08T04:03:37;101721.72;;;24.67;43.15
71559;BME280;59382;43.852;25.952;2023-09-08T04:06:03;101724.47;;;24.67;42.78
71559;BME280;59382;43.852;25.952;2023-09-08T04:08:28;101726.09;;;24.73;43.05
71559;BME280;59382;43.852;25.952;2023-09-08T04:10:54;101723.91;;;24.70;43.03
71559;BME280;59382;43.852;25.952;2023-09-08T04:13:19;101726.66;;;24.70;42.85
71559;BME280;59382;43.852;25.952;2023-09-08T04:15:45;101724.19;;;24.64;43.04
71559;BME280;59382;43.852;25.952;2023-09-08T04:18:10;101737.72;;;24.70;42.77
71559;BME280;59382;43.852;25.952;2023-09-08T04:20:36;101728.34;;;24.71;42.74
71559;BME280;59382;43.852;25.952;2023-09-08T04:23:01;101745.44;;;24.73;42.91
71559;BME280;59382;43.852;25.952;2023-09-08T04:25:27;101738.25;;;24.72;43.00
71559;BME280;59382;43.852;25.952;2023-09-08T04:27:52;101747.66;;;24.71;43.16
71559;BME280;59382;43.852;25.952;2023-09-08T04:30:18;101739.34;;;24.61;42.85
71559;BME280;59382;43.852;25.952;2023-09-08T04:32:44;101742.38;;;24.60;42.91
71559;BME280;59382;43.852;25.952;2023-09-08T04:35:10;101743.78;;;24.67;43.13
71559;BME280;59382;43.852;25.952;2023-09-08T04:37:35;101744.88;;;24.61;43.04
71559;BME280;59382;43.852;25.952;2023-09-08T04:40:02;101756.22;;;24.65;42.87
71559;BME280;59382;43.852;25.952;2023-09-08T04:42:28;101749.88;;;24.64;42.99
71559;BME280;59382;43.852;25.952;2023-09-08T04:44:54;101745.47;;;24.68;42.99
71559;BME280;59382;43.852;25.952;2023-09-08T04:47:20;101744.34;;;24.64;42.66
71559;BME280;59382;43.852;25.952;2023-09-08T04:49:46;101762.00;;;24.73;42.81
71559;BME280;59382;43.852;25.952;2023-09-08T04:52:11;101753.75;;;24.68;42.52
71559;BME280;59382;43.852;25.952;2023-09-08T04:54:37;101756.22;;;24.70;42.71
71559;BME280;59382;43.852;25.952;2023-09-08T04:57:06;101771.94;;;24.69;42.69
71559;BME280;59382;43.852;25.952;2023-09-08T04:59:31;101753.72;;;24.63;42.47
71559;BME280;59382;43.852;25.952;2023-09-08T05:01:58;101755.66;;;24.68;42.57
71559;BME280;59382;43.852;25.952;2023-09-08T05:04:24;101751.53;;;24.65;42.23
71559;BME280;59382;43.852;25.952;2023-09-08T05:06:49;101763.63;;;24.79;42.37
71559;BME280;59382;43.852;25.952;2023-09-08T05:09:15;101764.72;;;24.83;42.36
71559;BME280;59382;43.852;25.952;2023-09-08T05:11:40;101762.50;;;24.85;42.43
71559;BME280;59382;43.852;25.952;2023-09-08T05:14:06;101761.41;;;24.86;42.42
71559;BME280;59382;43.852;25.952;2023-09-08T05:16:31;101770.25;;;24.83;42.18
71559;BME280;59382;43.852;25.952;2023-09-08T05:19:10;101762.50;;;24.90;42.22
71559;BME280;59382;43.852;25.952;2023-09-08T05:21:36;101777.63;;;25.03;42.19
71559;BME280;59382;43.852;25.952;2023-09-08T05:24:02;101772.34;;;25.17;42.07
71559;BME280;59382;43.852;25.952;2023-09-08T05:26:28;101772.31;;;25.32;42.14
71559;BME280;59382;43.852;25.952;2023-09-08T05:28:54;101769.97;;;25.54;41.68
71559;BME280;59382;43.852;25.952;2023-09-08T05:31:19;101760.53;;;25.65;41.34
71559;BME280;59382;43.852;25.952;2023-09-08T05:33:45;101768.63;;;25.90;41.19
71559;BME280;59382;43.852;25.952;2023-09-08T05:36:11;101765.75;;;26.10;40.93
71559;BME280;59382;43.852;25.952;2023-09-08T05:38:36;101760.59;;;26.32;40.84
71559;BME280;59382;43.852;25.952;2023-09-08T05:41:02;101756.50;;;26.53;40.41
71559;BME280;59382;43.852;25.952;2023-09-08T05:43:28;101777.72;;;26.91;40.10
71559;BME280;59382;43.852;25.952;2023-09-08T05:45:53;101769.13;;;27.11;39.56
71559;BME280;59382;43.852;25.952;2023-09-08T05:48:19;101765.41;;;27.26;39.19
71559;BME280;59382;43.852;25.952;2023-09-08T05:50:44;101768.66;;;27.51;39.10
71559;BME280;59382;43.852;25.952;2023-09-08T05:53:10;101773.53;;;27.78;38.82
71559;BME280;59382;43.852;25.952;2023-09-08T05:55:35;101778.00;;;27.97;38.51
71559;BME280;59382;43.852;25.952;2023-09-08T05:58:01;101779.47;;;28.08;38.21
71559;BME280;59382;43.852;25.952;2023-09-08T06:00:27;101745.31;;;27.94;37.90
71559;BME280;59382;43.852;25.952;2023-09-08T06:02:52;101768.13;;;28.05;37.76
71559;BME280;59382;43.852;25.952;2023-09-08T06:05:18;101774.94;;;28.12;37.79
71559;BME280;59382;43.852;25.952;2023-09-08T06:07:43;101760.09;;;28.03;37.52
71559;BME280;59382;43.852;25.952;2023-09-08T06:10:09;101770.75;;;28.15;37.91
71559;BME280;59382;43.852;25.952;2023-09-08T06:12:35;101769.75;;;28.24;37.72
71559;BME280;59382;43.852;25.952;2023-09-08T06:15:02;101770.81;;;28.28;37.29
71559;BME280;59382;43.852;25.952;2023-09-08T06:17:28;101768.03;;;28.28;36.84
71559;BME280;59382;43.852;25.952;2023-09-08T06:19:54;101769.66;;;28.29;36.82
71559;BME280;59382;43.852;25.952;2023-09-08T06:22:19;101794.16;;;28.41;36.96
71559;BME280;59382;43.852;25.952;2023-09-08T06:24:45;101773.41;;;28.38;36.85
71559;BME280;59382;43.852;25.952;2023-09-08T06:27:10;101777.72;;;28.44;36.61
71559;BME280;59382;43.852;25.952;2023-09-08T06:29:37;101782.28;;;28.54;36.24
71559;BME280;59382;43.852;25.952;2023-09-08T06:32:04;101788.16;;;28.52;36.43
71559;BME280;59382;43.852;25.952;2023-09-08T06:34:32;101784.75;;;28.55;36.31
71559;BME280;59382;43.852;25.952;2023-09-08T06:36:59;101785.63;;;28.70;36.43
71559;BME280;59382;43.852;25.952;2023-09-08T06:39:25;101781.72;;;28.71;36.10
71559;BME280;59382;43.852;25.952;2023-09-08T06:41:51;101774.50;;;28.70;36.10
71559;BME280;59382;43.852;25.952;2023-09-08T06:44:16;101784.63;;;28.79;36.15
71559;BME280;59382;43.852;25.952;2023-09-08T06:46:42;101802.22;;;28.88;36.00
71559;BME280;59382;43.852;25.952;2023-09-08T06:49:07;101794.50;;;28.99;35.75
71559;BME280;59382;43.852;25.952;2023-09-08T06:51:33;101800.41;;;29.11;35.41
71559;BME280;59382;43.852;25.952;2023-09-08T06:53:58;101801.94;;;29.17;35.66
71559;BME280;59382;43.852;25.952;2023-09-08T06:56:25;101798.22;;;29.21;35.30
71559;BME280;59382;43.852;25.952;2023-09-08T06:58:51;101804.22;;;29.28;35.42
71559;BME280;59382;43.852;25.952;2023-09-08T07:01:17;101791.34;;;29.32;35.18
71559;BME280;59382;43.852;25.952;2023-09-08T07:03:43;101791.41;;;29.41;35.17
71559;BME280;59382;43.852;25.952;2023-09-08T07:06:08;101805.22;;;29.46;35.38
71559;BME280;59382;43.852;25.952;2023-09-08T07:08:34;101801.13;;;29.30;35.20
71559;BME280;59382;43.852;25.952;2023-09-08T07:10:59;101788.47;;;29.24;35.47
71559;BME280;59382;43.852;25.952;2023-09-08T07:13:25;101817.81;;;29.30;35.21
71559;BME280;59382;43.852;25.952;2023-09-08T07:15:50;101805.25;;;29.32;35.19
71559;BME280;59382;43.852;25.952;2023-09-08T07:18:16;101805.44;;;29.36;35.04
71559;BME280;59382;43.852;25.952;2023-09-08T07:20:46;101810.19;;;29.22;35.11
71559;BME280;59382;43.852;25.952;2023-09-08T07:23:11;101807.19;;;29.32;35.37
71559;BME280;59382;43.852;25.952;2023-09-08T07:25:37;101807.09;;;29.37;35.30
71559;BME280;59382;43.852;25.952;2023-09-08T07:28:02;101800.91;;;29.40;35.31
71559;BME280;59382;43.852;25.952;2023-09-08T07:30:28;101812.22;;;29.43;35.53
71559;BME280;59382;43.852;25.952;2023-09-08T07:32:54;101799.69;;;29.32;35.37
71559;BME280;59382;43.852;25.952;2023-09-08T07:35:19;101806.06;;;29.33;35.53
71559;BME280;59382;43.852;25.952;2023-09-08T07:37:45;101813.50;;;29.24;35.69
71559;BME280;59382;43.852;25.952;2023-09-08T07:40:11;101808.91;;;29.01;35.97
71559;BME280;59382;43.852;25.952;2023-09-08T07:42:37;101815.22;;;28.60;36.44
71559;BME280;59382;43.852;25.952;2023-09-08T07:45:02;101811.66;;;28.41;36.91
71559;BME280;59382;43.852;25.952;2023-09-08T07:47:28;101830.22;;;28.46;36.69
71559;BME280;59382;43.852;25.952;2023-09-08T07:50:21;101826.53;;;28.50;36.92
71559;BME280;59382;43.852;25.952;2023-09-08T07:52:48;101818.34;;;28.40;36.82
71559;BME280;59382;43.852;25.952;2023-09-08T07:55:13;101822.59;;;28.19;36.94
71559;BME280;59382;43.852;25.952;2023-09-08T07:57:40;101816.38;;;27.90;37.39
71559;BME280;59382;43.852;25.952;2023-09-08T08:00:07;101825.84;;;27.66;37.85
71559;BME280;59382;43.852;25.952;2023-09-08T08:02:36;101827.84;;;27.60;38.09
71559;BME280;59382;43.852;25.952;2023-09-08T08:05:02;101834.00;;;27.57;38.16
71559;BME280;59382;43.852;25.952;2023-09-08T08:07:27;101835.84;;;27.43;38.17
71559;BME280;59382;43.852;25.952;2023-09-08T08:09:53;101835.50;;;27.26;38.43
71559;BME280;59382;43.852;25.952;2023-09-08T08:12:19;101833.81;;;27.02;39.23
71559;BME280;59382;43.852;25.952;2023-09-08T08:14:45;101842.47;;;26.95;39.27
71559;BME280;59382;43.852;25.952;2023-09-08T08:17:10;101836.00;;;26.81;39.38
71559;BME280;59382;43.852;25.952;2023-09-08T08:19:36;101839.84;;;26.80;39.52
71559;BME280;59382;43.852;25.952;2023-09-08T08:22:02;101836.56;;;26.78;39.45
71559;BME280;59382;43.852;25.952;2023-09-08T08:24:27;101825.53;;;26.73;39.62
71559;BME280;59382;43.852;25.952;2023-09-08T08:26:54;101828.31;;;26.73;39.81
71559;BME280;59382;43.852;25.952;2023-09-08T08:29:20;101828.88;;;26.70;39.56
71559;BME280;59382;43.852;25.952;2023-09-08T08:31:45;101825.78;;;26.76;40.03
71559;BME280;59382;43.852;25.952;2023-09-08T08:34:11;101825.50;;;26.78;39.99
71559;BME280;59382;43.852;25.952;2023-09-08T08:36:36;101832.09;;;26.82;39.80
71559;BME280;59382;43.852;25.952;2023-09-08T08:39:02;101830.44;;;26.81;39.90
71559;BME280;59382;43.852;25.952;2023-09-08T08:41:29;101837.63;;;26.82;39.68
71559;BME280;59382;43.852;25.952;2023-09-08T08:43:55;101838.22;;;26.79;40.05
71559;BME280;59382;43.852;25.952;2023-09-08T08:46:21;101826.66;;;26.72;39.98
71559;BME280;59382;43.852;25.952;2023-09-08T08:48:48;101827.19;;;26.74;39.70
71559;BME280;59382;43.852;25.952;2023-09-08T08:51:17;101825.53;;;26.73;39.99
71559;BME280;59382;43.852;25.952;2023-09-08T08:53:43;101829.91;;;26.79;39.62
71559;BME280;59382;43.852;25.952;2023-09-08T08:56:09;101821.00;;;26.82;39.90
71559;BME280;59382;43.852;25.952;2023-09-08T08:58:39;101824.31;;;26.84;39.77
71559;BME280;59382;43.852;25.952;2023-09-08T09:01:06;101820.19;;;26.81;39.84
71559;BME280;59382;43.852;25.952;2023-09-08T09:03:33;101822.06;;;26.86;40.24
71559;BME280;59382;43.852;25.952;2023-09-08T09:06:02;101814.31;;;26.88;40.25
71559;BME280;59382;43.852;25.952;2023-09-08T09:08:29;101813.13;;;26.94;40.15
71559;BME280;59382;43.852;25.952;2023-09-08T09:10:55;101819.97;;;27.02;40.11
71559;BME280;59382;43.852;25.952;2023-09-08T09:13:20;101816.16;;;27.21;39.75
71559;BME280;59382;43.852;25.952;2023-09-08T09:15:48;101821.44;;;27.41;39.75
71559;BME280;59382;43.852;25.952;2023-09-08T09:18:14;101815.84;;;27.46;39.89
71559;BME280;59382;43.852;25.952;2023-09-08T09:20:40;101820.88;;;27.44;39.62
71559;BME280;59382;43.852;25.952;2023-09-08T09:23:07;101788.38;;;27.26;39.61
71559;BME280;59382;43.852;25.952;2023-09-08T09:25:32;101797.19;;;27.33;39.92
71559;BME280;59382;43.852;25.952;2023-09-08T09:28:00;101813.38;;;27.45;39.75
71559;BME280;59382;43.852;25.952;2023-09-08T09:30:27;101787.69;;;27.39;39.97
71559;BME280;59382;43.852;25.952;2023-09-08T09:33:03;101799.91;;;27.57;40.08
71559;BME280;59382;43.852;25.952;2023-09-08T09:35:45;101790.91;;;27.65;40.24
71559;BME280;59382;43.852;25.952;2023-09-08T09:38:11;101790.34;;;27.86;39.61
71559;BME280;59382;43.852;25.952;2023-09-08T09:40:37;101775.03;;;27.89;39.63
71559;BME280;59382;43.852;25.952;2023-09-08T09:43:04;101774.06;;;27.98;39.58
71559;BME280;59382;43.852;25.952;2023-09-08T09:45:31;101780.00;;;28.10;39.80
71559;BME280;59382;43.852;25.952;2023-09-08T09:47:58;101776.50;;;28.18;39.76
71559;BME280;59382;43.852;25.952;2023-09-08T09:50:33;101765.25;;;28.28;39.70
71559;BME280;59382;43.852;25.952;2023-09-08T09:53:03;101753.00;;;28.29;39.56
71559;BME280;59382;43.852;25.952;2023-09-08T09:55:29;101753.53;;;28.31;39.46
71559;BME280;59382;43.852;25.952;2023-09-08T09:57:58;101752.09;;;28.34;39.50
71559;BME280;59382;43.852;25.952;2023-09-08T10:00:26;101756.97;;;28.42;40.01
71559;BME280;59382;43.852;25.952;2023-09-08T10:02:53;101761.69;;;28.41;39.85
71559;BME280;59382;43.852;25.952;2023-09-08T10:05:19;101755.59;;;28.39;39.62
71559;BME280;59382;43.852;25.952;2023-09-08T10:07:47;101747.28;;;28.39;39.61
71559;BME280;59382;43.852;25.952;2023-09-08T10:10:14;101730.63;;;28.39;39.80
71559;BME280;59382;43.852;25.952;2023-09-08T10:12:46;101746.50;;;28.52;39.75
71559;BME280;59382;43.852;25.952;2023-09-08T10:15:19;101741.56;;;28.63;39.38
71559;BME280;59382;43.852;25.952;2023-09-08T10:17:49;101741.78;;;28.53;39.28
71559;BME280;59382;43.852;25.952;2023-09-08T10:20:18;101746.81;;;28.51;39.01
71559;BME280;59382;43.852;25.952;2023-09-08T10:22:49;101743.38;;;28.40;38.79
71559;BME280;59382;43.852;25.952;2023-09-08T10:25:16;101731.22;;;28.36;38.68
71559;BME280;59382;43.852;25.952;2023-09-08T10:27:42;101741.81;;;28.34;38.55
71559;BME280;59382;43.852;25.952;2023-09-08T10:30:09;101737.38;;;28.33;37.77
71559;BME280;59382;43.852;25.952;2023-09-08T10:32:36;101733.19;;;28.36;37.80
71559;BME280;59382;43.852;25.952;2023-09-08T10:35:06;101723.19;;;28.35;36.83
71559;BME280;59382;43.852;25.952;2023-09-08T10:37:32;101733.09;;;28.41;36.54
71559;BME280;59382;43.852;25.952;2023-09-08T10:40:21;101730.44;;;28.49;36.73
71559;BME280;59382;43.852;25.952;2023-09-08T10:42:47;101737.06;;;28.53;36.49
71559;BME280;59382;43.852;25.952;2023-09-08T10:45:17;101731.81;;;28.66;35.93
71559;BME280;59382;43.852;25.952;2023-09-08T10:50:47;101732.31;;;28.67;35.71
71559;BME280;59382;43.852;25.952;2023-09-08T10:53:17;101731.72;;;28.71;35.32
71559;BME280;59382;43.852;25.952;2023-09-08T10:55:50;101714.03;;;28.67;35.25
71559;BME280;59382;43.852;25.952;2023-09-08T10:58:31;101721.13;;;28.73;35.36
71559;BME280;59382;43.852;25.952;2023-09-08T11:01:00;101722.75;;;28.74;35.00
71559;BME280;59382;43.852;25.952;2023-09-08T11:03:28;101723.91;;;28.73;34.92
71559;BME280;59382;43.852;25.952;2023-09-08T11:05:54;101703.84;;;28.76;34.33
71559;BME280;59382;43.852;25.952;2023-09-08T11:08:21;101710.22;;;28.76;34.00
71559;BME280;59382;43.852;25.952;2023-09-08T11:10:47;101714.94;;;28.76;34.11
71559;BME280;59382;43.852;25.952;2023-09-08T11:13:12;101708.25;;;28.77;34.04
71559;BME280;59382;43.852;25.952;2023-09-08T11:15:38;101709.72;;;28.74;33.96
71559;BME280;59382;43.852;25.952;2023-09-08T11:18:06;101697.34;;;28.67;33.72
71559;BME280;59382;43.852;25.952;2023-09-08T11:20:34;101703.94;;;28.71;33.62
71559;BME280;59382;43.852;25.952;2023-09-08T11:22:59;101693.44;;;28.67;33.27
71559;BME280;59382;43.852;25.952;2023-09-08T11:25:25;101691.59;;;28.63;33.35
71559;BME280;59382;43.852;25.952;2023-09-08T11:27:51;101690.16;;;28.66;33.30
71559;BME280;59382;43.852;25.952;2023-09-08T11:30:17;101686.25;;;28.67;33.23
71559;BME280;59382;43.852;25.952;2023-09-08T11:32:43;101705.59;;;28.72;32.88
71559;BME280;59382;43.852;25.952;2023-09-08T11:35:09;101687.88;;;28.67;32.88
71559;BME280;59382;43.852;25.952;2023-09-08T11:40:28;101691.72;;;28.72;32.82
71559;BME280;59382;43.852;25.952;2023-09-08T11:42:54;101685.00;;;28.73;32.86
71559;BME280;59382;43.852;25.952;2023-09-08T11:45:19;101685.63;;;28.70;32.60
71559;BME280;59382;43.852;25.952;2023-09-08T11:47:46;101682.84;;;28.70;32.60
71559;BME280;59382;43.852;25.952;2023-09-08T11:50:14;101672.66;;;28.65;32.39
71559;BME280;59382;43.852;25.952;2023-09-08T11:52:47;101673.28;;;28.62;32.36
71559;BME280;59382;43.852;25.952;2023-09-08T11:55:14;101680.78;;;28.61;32.35
71559;BME280;59382;43.852;25.952;2023-09-08T11:57:41;101678.31;;;28.60;32.10
71559;BME280;59382;43.852;25.952;2023-09-08T12:00:07;101673.06;;;28.58;31.74
71559;BME280;59382;43.852;25.952;2023-09-08T12:02:39;101663.81;;;28.49;31.88
71559;BME280;59382;43.852;25.952;2023-09-08T12:05:05;101653.63;;;28.45;32.06
71559;BME280;59382;43.852;25.952;2023-09-08T12:07:31;101665.66;;;28.54;31.79
71559;BME280;59382;43.852;25.952;2023-09-08T12:09:57;101663.19;;;28.52;32.27
71559;BME280;59382;43.852;25.952;2023-09-08T12:12:25;101660.94;;;28.54;31.67
71559;BME280;59382;43.852;25.952;2023-09-08T12:14:52;101666.50;;;28.54;31.35
71559;BME280;59382;43.852;25.952;2023-09-08T12:17:17;101662.78;;;28.45;31.27
71559;BME280;59382;43.852;25.952;2023-09-08T12:19:43;101661.34;;;28.48;31.11
71559;BME280;59382;43.852;25.952;2023-09-08T12:22:09;101656.63;;;28.48;31.28
71559;BME280;59382;43.852;25.952;2023-09-08T12:24:56;101672.44;;;28.48;31.04
71559;BME280;59382;43.852;25.952;2023-09-08T12:27:23;101645.91;;;28.42;31.21
71559;BME280;59382;43.852;25.952;2023-09-08T12:32:22;101662.09;;;28.53;30.89
71559;BME280;59382;43.852;25.952;2023-09-08T12:34:47;101663.19;;;28.52;30.53
71559;BME280;59382;43.852;25.952;2023-09-08T12:37:13;101661.56;;;28.51;30.25
71559;BME280;59382;43.852;25.952;2023-09-08T12:39:38;101644.91;;;28.51;30.08
71559;BME280;59382;43.852;25.952;2023-09-08T12:42:04;101645.50;;;28.48;30.06
71559;BME280;59382;43.852;25.952;2023-09-08T12:44:30;101639.34;;;28.51;30.12
71559;BME280;59382;43.852;25.952;2023-09-08T12:46:56;101642.66;;;28.53;30.19